createdAt,value
2017-02-14T00:00:28.233Z,966.17
2017-02-14T00:01:28.214Z,966.22
2017-02-14T00:02:28.186Z,966.16
2017-02-14T00:03:28.171Z,966.2
2017-02-14T00:04:28.151Z,966.18
2017-02-14T00:05:28.132Z,966.1
2017-02-14T00:06:28.106Z,966.13
2017-02-14T00:07:28.089Z,966.13
2017-02-14T00:08:28.069Z,966.1
2017-02-14T00:09:28.177Z,966.1
2017-02-14T00:10:28.029Z,966.09
2017-02-14T00:11:28.009Z,966.14
2017-02-14T00:12:27.988Z,966.13
2017-02-14T00:13:27.961Z,966.07
2017-02-14T00:14:27.947Z,966.11
2017-02-14T00:15:27.927Z,966.1
2017-02-14T00:16:27.906Z,966.08
2017-02-14T00:17:27.886Z,966.07
2017-02-14T00:18:27.866Z,966.08
2017-02-14T00:19:27.846Z,966.05
2017-02-14T00:20:27.818Z,966
2017-02-14T00:21:27.806Z,966.04
2017-02-14T00:22:27.779Z,966.02
2017-02-14T00:23:27.764Z,966.01
2017-02-14T00:24:27.743Z,965.97
2017-02-14T00:25:27.723Z,966.01
2017-02-14T00:26:27.702Z,966
2017-02-14T00:27:27.683Z,966.01
2017-02-14T00:28:27.662Z,966.01
2017-02-14T00:29:27.642Z,966.02
2017-02-14T00:30:27.621Z,966
2017-02-14T00:31:27.602Z,966.01
2017-02-14T00:32:27.607Z,966
2017-02-14T00:33:27.560Z,966.06
2017-02-14T00:34:27.540Z,966.1
2017-02-14T00:35:27.524Z,966.05
2017-02-14T00:36:27.498Z,966.03
2017-02-14T00:37:27.478Z,966.01
2017-02-14T00:38:27.459Z,966.08
2017-02-14T00:39:27.438Z,966.11
2017-02-14T00:40:27.418Z,966.06
2017-02-14T00:41:27.390Z,966.13
2017-02-14T00:42:27.378Z,966.12
2017-02-14T00:43:27.399Z,966.1
2017-02-14T00:44:27.336Z,966.18
2017-02-14T00:45:27.317Z,966.17
2017-02-14T00:46:27.296Z,966.11
2017-02-14T00:47:27.275Z,966.04
2017-02-14T00:48:27.257Z,966.07
2017-02-14T00:49:27.234Z,966.08
2017-02-14T00:50:27.213Z,965.96
2017-02-14T00:51:27.193Z,965.99
2017-02-14T00:52:27.171Z,966.01
2017-02-14T00:53:27.153Z,965.96
2017-02-14T00:54:27.131Z,966.04
2017-02-14T00:55:27.111Z,966.06
2017-02-14T00:56:27.091Z,966.01
2017-02-14T00:57:27.070Z,966.01
2017-02-14T00:58:27.240Z,966.02
2017-02-14T00:59:27.030Z,966.04
2017-02-14T01:00:27.009Z,965.99
2017-02-14T01:01:26.990Z,966.01
2017-02-14T01:02:26.968Z,966.02
2017-02-14T01:03:26.948Z,966.01
2017-02-14T01:04:26.927Z,965.98
2017-02-14T01:05:26.906Z,966.01
2017-02-14T01:06:26.887Z,965.96
2017-02-14T01:07:26.865Z,965.99
2017-02-14T01:08:26.845Z,966.01
2017-02-14T01:09:26.825Z,965.99
2017-02-14T01:10:26.805Z,965.94
2017-02-14T01:11:26.785Z,965.94
2017-02-14T01:12:26.765Z,965.92
2017-02-14T01:13:26.743Z,965.94
2017-02-14T01:14:26.725Z,965.97
2017-02-14T01:15:26.703Z,965.88
2017-02-14T01:16:26.682Z,965.87
2017-02-14T01:17:26.662Z,965.98
2017-02-14T01:18:26.640Z,965.86
2017-02-14T01:19:26.619Z,966.02
2017-02-14T01:20:26.593Z,965.96
2017-02-14T01:21:26.580Z,965.93
2017-02-14T01:22:26.559Z,965.93
2017-02-14T01:23:26.531Z,966.02
2017-02-14T01:24:26.518Z,966
2017-02-14T01:25:26.497Z,965.95
2017-02-14T01:26:26.477Z,966.02
2017-02-14T01:27:26.460Z,965.96
2017-02-14T01:28:26.439Z,966.04
2017-02-14T01:29:26.416Z,966.02
2017-02-14T01:30:26.394Z,965.89
2017-02-14T01:31:26.379Z,965.95
2017-02-14T01:32:26.355Z,965.97
2017-02-14T01:33:26.335Z,965.93
2017-02-14T01:34:26.312Z,965.93
2017-02-14T01:35:26.294Z,965.95
2017-02-14T01:36:26.272Z,965.88
2017-02-14T01:37:26.253Z,965.94
2017-02-14T01:38:26.230Z,965.88
2017-02-14T01:39:26.210Z,965.9
2017-02-14T01:40:26.189Z,965.96
2017-02-14T01:41:26.170Z,965.97
2017-02-14T01:42:26.148Z,965.87
2017-02-14T01:43:26.128Z,965.91
2017-02-14T01:44:26.109Z,965.94
2017-02-14T01:45:26.087Z,965.93
2017-02-14T01:46:26.067Z,965.86
2017-02-14T01:47:26.046Z,965.91
2017-02-14T01:48:26.028Z,965.96
2017-02-14T01:49:25.996Z,965.93
2017-02-14T01:50:25.985Z,965.89
2017-02-14T01:51:25.964Z,965.88
2017-02-14T01:52:25.945Z,965.91
2017-02-14T01:53:25.922Z,965.92
2017-02-14T01:54:25.896Z,965.88
2017-02-14T01:55:25.883Z,965.84
2017-02-14T01:56:25.862Z,965.86
2017-02-14T01:57:25.839Z,965.89
2017-02-14T01:58:25.819Z,965.83
2017-02-14T01:59:25.801Z,965.84
2017-02-14T02:00:25.778Z,965.86
2017-02-14T02:01:25.759Z,965.89
2017-02-14T02:02:25.739Z,965.79
2017-02-14T02:03:25.717Z,965.8
2017-02-14T02:04:25.697Z,965.84
2017-02-14T02:05:25.677Z,965.79
2017-02-14T02:06:25.656Z,965.79
2017-02-14T02:07:25.635Z,965.82
2017-02-14T02:08:25.607Z,965.8
2017-02-14T02:09:25.595Z,965.73
2017-02-14T02:10:25.574Z,965.82
2017-02-14T02:11:25.553Z,965.77
2017-02-14T02:12:25.534Z,965.79
2017-02-14T02:13:25.507Z,965.79
2017-02-14T02:14:25.494Z,965.82
2017-02-14T02:15:25.471Z,965.85
2017-02-14T02:16:25.451Z,965.79
2017-02-14T02:17:25.431Z,965.82
2017-02-14T02:18:25.410Z,965.78
2017-02-14T02:19:25.389Z,965.88
2017-02-14T02:20:25.370Z,965.82
2017-02-14T02:21:25.347Z,965.81
2017-02-14T02:22:25.326Z,965.86
2017-02-14T02:23:25.308Z,965.79
2017-02-14T02:24:25.287Z,965.83
2017-02-14T02:25:25.267Z,965.84
2017-02-14T02:26:25.305Z,965.86
2017-02-14T02:27:25.225Z,965.9
2017-02-14T02:28:25.197Z,965.88
2017-02-14T02:29:25.184Z,965.79
2017-02-14T02:30:25.164Z,965.82
2017-02-14T02:31:25.143Z,965.85
2017-02-14T02:32:25.123Z,965.83
2017-02-14T02:33:25.102Z,965.86
2017-02-14T02:34:25.081Z,965.81
2017-02-14T02:35:25.060Z,965.84
2017-02-14T02:36:25.033Z,965.8
2017-02-14T02:37:25.018Z,965.83
2017-02-14T02:38:25.000Z,965.83
2017-02-14T02:39:24.979Z,965.86
2017-02-14T02:40:24.957Z,965.84
2017-02-14T02:41:24.937Z,965.82
2017-02-14T02:42:24.941Z,965.78
2017-02-14T02:43:24.897Z,965.81
2017-02-14T02:44:24.877Z,965.88
2017-02-14T02:45:24.855Z,965.82
2017-02-14T02:46:24.835Z,965.79
2017-02-14T02:47:24.808Z,965.8
2017-02-14T02:48:24.793Z,965.78
2017-02-14T02:49:24.775Z,965.83
2017-02-14T02:50:24.751Z,965.82
2017-02-14T02:51:24.738Z,965.82
2017-02-14T02:52:24.710Z,965.83
2017-02-14T02:53:24.690Z,965.8
2017-02-14T02:54:24.667Z,965.86
2017-02-14T02:55:24.647Z,965.82
2017-02-14T02:56:24.626Z,965.88
2017-02-14T02:57:24.606Z,965.85
2017-02-14T02:58:24.584Z,965.85
2017-02-14T02:59:24.566Z,965.88
2017-02-14T03:00:24.543Z,965.77
2017-02-14T03:01:24.523Z,965.83
2017-02-14T03:02:24.502Z,965.72
2017-02-14T03:03:24.482Z,965.79
2017-02-14T03:04:24.464Z,965.78
2017-02-14T03:05:24.442Z,965.77
2017-02-14T03:06:24.417Z,965.76
2017-02-14T03:07:24.401Z,965.76
2017-02-14T03:08:24.379Z,965.76
2017-02-14T03:09:24.358Z,965.73
2017-02-14T03:10:24.338Z,965.76
2017-02-14T03:11:24.317Z,965.81
2017-02-14T03:12:24.296Z,965.77
2017-02-14T03:13:24.273Z,965.73
2017-02-14T03:14:24.252Z,965.7
2017-02-14T03:15:24.233Z,965.71
2017-02-14T03:16:24.216Z,965.7
2017-02-14T03:17:24.192Z,965.67
2017-02-14T03:18:24.169Z,965.68
2017-02-14T03:19:24.152Z,965.7
2017-02-14T03:20:24.131Z,965.66
2017-02-14T03:21:24.109Z,965.72
2017-02-14T03:22:24.091Z,965.74
2017-02-14T03:23:24.065Z,965.68
2017-02-14T03:24:24.048Z,965.71
2017-02-14T03:25:24.026Z,965.71
2017-02-14T03:26:24.006Z,965.7
2017-02-14T03:27:23.985Z,965.79
2017-02-14T03:28:23.964Z,965.71
2017-02-14T03:29:23.945Z,965.71
2017-02-14T03:30:23.924Z,965.7
2017-02-14T03:31:23.903Z,965.74
2017-02-14T03:32:23.881Z,965.72
2017-02-14T03:33:23.859Z,965.77
2017-02-14T03:34:23.842Z,965.78
2017-02-14T03:35:23.816Z,965.77
2017-02-14T03:36:23.799Z,965.78
2017-02-14T03:37:23.779Z,965.81
2017-02-14T03:38:23.759Z,965.86
2017-02-14T03:39:23.737Z,965.9
2017-02-14T03:40:23.723Z,965.93
2017-02-14T03:41:23.697Z,965.94
2017-02-14T03:42:23.674Z,965.96
2017-02-14T03:43:23.654Z,965.93
2017-02-14T03:44:23.633Z,965.89
2017-02-14T03:45:23.613Z,965.9
2017-02-14T03:46:23.592Z,965.91
2017-02-14T03:47:23.569Z,965.88
2017-02-14T03:48:23.552Z,965.88
2017-02-14T03:49:23.529Z,965.89
2017-02-14T03:50:23.509Z,965.93
2017-02-14T03:51:23.490Z,965.85
2017-02-14T03:52:23.470Z,965.89
2017-02-14T03:53:23.446Z,965.89
2017-02-14T03:54:23.427Z,965.85
2017-02-14T03:55:23.405Z,965.86
2017-02-14T03:56:23.386Z,965.84
2017-02-14T03:57:23.364Z,965.89
2017-02-14T03:58:23.344Z,965.87
2017-02-14T03:59:23.324Z,965.88
2017-02-14T04:00:23.302Z,965.94
2017-02-14T04:01:23.282Z,965.93
2017-02-14T04:02:23.258Z,965.92
2017-02-14T04:03:23.237Z,965.97
2017-02-14T04:04:23.219Z,965.96
2017-02-14T04:05:23.200Z,965.93
2017-02-14T04:06:23.178Z,965.94
2017-02-14T04:07:23.157Z,965.98
2017-02-14T04:08:23.136Z,965.98
2017-02-14T04:09:23.116Z,965.93
2017-02-14T04:10:23.095Z,965.92
2017-02-14T04:11:23.076Z,965.89
2017-02-14T04:12:23.053Z,965.9
2017-02-14T04:13:23.031Z,965.94
2017-02-14T04:14:23.010Z,965.9
2017-02-14T04:15:22.991Z,965.91
2017-02-14T04:16:22.971Z,965.9
2017-02-14T04:17:22.950Z,965.87
2017-02-14T04:18:22.926Z,965.88
2017-02-14T04:19:22.905Z,965.87
2017-02-14T04:20:22.884Z,965.9
2017-02-14T04:21:22.866Z,965.86
2017-02-14T04:22:22.845Z,965.81
2017-02-14T04:23:22.823Z,965.84
2017-02-14T04:24:22.801Z,965.87
2017-02-14T04:25:22.781Z,965.82
2017-02-14T04:26:22.763Z,965.82
2017-02-14T04:27:22.742Z,965.82
2017-02-14T04:28:22.721Z,965.81
2017-02-14T04:29:22.709Z,965.78
2017-02-14T04:30:22.679Z,965.74
2017-02-14T04:31:22.656Z,965.76
2017-02-14T04:32:22.638Z,965.69
2017-02-14T04:33:22.618Z,965.74
2017-02-14T04:34:22.597Z,965.74
2017-02-14T04:35:22.576Z,965.74
2017-02-14T04:36:22.557Z,965.73
2017-02-14T04:37:22.533Z,965.72
2017-02-14T04:38:22.514Z,965.77
2017-02-14T04:39:22.494Z,965.76
2017-02-14T04:40:22.474Z,965.77
2017-02-14T04:41:22.454Z,965.8
2017-02-14T04:42:22.433Z,965.74
2017-02-14T04:43:22.416Z,965.78
2017-02-14T04:44:22.393Z,965.79
2017-02-14T04:45:22.369Z,965.79
2017-02-14T04:46:22.350Z,965.77
2017-02-14T04:47:22.326Z,965.82
2017-02-14T04:48:22.307Z,965.81
2017-02-14T04:49:22.284Z,965.76
2017-02-14T04:50:22.311Z,965.76
2017-02-14T04:51:22.246Z,965.82
2017-02-14T04:52:22.224Z,965.82
2017-02-14T04:53:22.203Z,965.8
2017-02-14T04:54:22.182Z,965.87
2017-02-14T04:55:22.162Z,965.85
2017-02-14T04:56:22.138Z,965.78
2017-02-14T04:57:22.121Z,965.81
2017-02-14T04:58:22.104Z,965.87
2017-02-14T04:59:22.079Z,965.86
2017-02-14T05:00:22.056Z,965.81
2017-02-14T05:01:22.035Z,965.91
2017-02-14T05:02:22.017Z,965.81
2017-02-14T05:03:21.994Z,965.89
2017-02-14T05:04:21.977Z,965.86
2017-02-14T05:05:21.955Z,965.84
2017-02-14T05:06:21.931Z,965.95
2017-02-14T05:07:21.913Z,965.91
2017-02-14T05:08:21.891Z,965.88
2017-02-14T05:09:21.877Z,965.91
2017-02-14T05:10:21.851Z,965.94
2017-02-14T05:11:21.830Z,965.86
2017-02-14T05:12:21.811Z,965.86
2017-02-14T05:13:21.790Z,965.89
2017-02-14T05:14:21.773Z,965.85
2017-02-14T05:15:21.747Z,965.9
2017-02-14T05:16:21.728Z,965.89
2017-02-14T05:17:21.703Z,965.86
2017-02-14T05:18:21.686Z,965.81
2017-02-14T05:19:21.664Z,965.8
2017-02-14T05:20:21.646Z,965.89
2017-02-14T05:21:21.620Z,965.81
2017-02-14T05:22:21.604Z,965.81
2017-02-14T05:23:21.582Z,965.84
2017-02-14T05:24:21.563Z,965.89
2017-02-14T05:25:21.538Z,965.91
2017-02-14T05:26:21.521Z,965.88
2017-02-14T05:27:21.500Z,965.9
2017-02-14T05:28:21.478Z,965.95
2017-02-14T05:29:21.455Z,965.93
2017-02-14T05:30:21.439Z,965.97
2017-02-14T05:31:21.414Z,965.97
2017-02-14T05:32:21.396Z,965.97
2017-02-14T05:33:21.375Z,965.97
2017-02-14T05:34:21.354Z,966.05
2017-02-14T05:35:21.351Z,966.04
2017-02-14T05:36:21.313Z,966.02
2017-02-14T05:37:21.288Z,966.05
2017-02-14T05:38:21.270Z,966.04
2017-02-14T05:39:21.252Z,966.04
2017-02-14T05:40:21.227Z,966.05
2017-02-14T05:41:21.209Z,965.96
2017-02-14T05:42:21.188Z,965.98
2017-02-14T05:43:21.168Z,966.05
2017-02-14T05:44:21.147Z,966.02
2017-02-14T05:45:21.127Z,966
2017-02-14T05:46:21.107Z,966.04
2017-02-14T05:47:21.085Z,966.04
2017-02-14T05:48:21.061Z,965.95
2017-02-14T05:49:21.043Z,966
2017-02-14T05:50:21.022Z,966.01
2017-02-14T05:51:21.002Z,965.98
2017-02-14T05:52:20.978Z,966.02
2017-02-14T05:53:20.961Z,966.01
2017-02-14T05:54:20.936Z,966.03
2017-02-14T05:55:20.917Z,966.01
2017-02-14T05:56:20.895Z,966.03
2017-02-14T05:57:20.874Z,966.05
2017-02-14T05:58:20.856Z,966.11
2017-02-14T05:59:20.834Z,966.09
2017-02-14T06:00:20.814Z,966.16
2017-02-14T06:01:20.794Z,966.19
2017-02-14T06:02:20.771Z,966.19
2017-02-14T06:03:20.753Z,966.18
2017-02-14T06:04:20.731Z,966.18
2017-02-14T06:05:20.709Z,966.23
2017-02-14T06:06:20.687Z,966.18
2017-02-14T06:07:20.670Z,966.2
2017-02-14T06:08:20.650Z,966.21
2017-02-14T06:09:20.629Z,966.15
2017-02-14T06:10:20.608Z,966.21
2017-02-14T06:11:20.588Z,966.18
2017-02-14T06:12:20.566Z,966.21
2017-02-14T06:13:20.546Z,966.2
2017-02-14T06:14:20.525Z,966.23
2017-02-14T06:15:20.502Z,966.24
2017-02-14T06:16:20.480Z,966.22
2017-02-14T06:17:20.463Z,966.26
2017-02-14T06:18:20.440Z,966.25
2017-02-14T06:19:20.421Z,966.29
2017-02-14T06:20:20.399Z,966.27
2017-02-14T06:21:20.379Z,966.27
2017-02-14T06:22:20.359Z,966.3
2017-02-14T06:23:20.337Z,966.29
2017-02-14T06:24:20.314Z,966.32
2017-02-14T06:25:20.297Z,966.3
2017-02-14T06:26:20.278Z,966.33
2017-02-14T06:27:20.256Z,966.37
2017-02-14T06:28:20.235Z,966.38
2017-02-14T06:29:20.216Z,966.41
2017-02-14T06:30:20.194Z,966.39
2017-02-14T06:31:20.170Z,966.38
2017-02-14T06:32:20.153Z,966.4
2017-02-14T06:33:20.130Z,966.42
2017-02-14T06:34:20.110Z,966.46
2017-02-14T06:35:20.088Z,966.52
2017-02-14T06:36:20.070Z,966.47
2017-02-14T06:37:20.049Z,966.51
2017-02-14T06:38:20.029Z,966.45
2017-02-14T06:39:20.007Z,966.47
2017-02-14T06:40:19.988Z,966.5
2017-02-14T06:41:19.966Z,966.53
2017-02-14T06:42:19.945Z,966.55
2017-02-14T06:43:19.925Z,966.56
2017-02-14T06:44:19.902Z,966.57
2017-02-14T06:45:19.885Z,966.54
2017-02-14T06:46:19.864Z,966.55
2017-02-14T06:47:19.845Z,966.54
2017-02-14T06:48:19.824Z,966.51
2017-02-14T06:49:19.802Z,966.54
2017-02-14T06:50:19.780Z,966.48
2017-02-14T06:51:19.761Z,966.51
2017-02-14T06:52:19.741Z,966.49
2017-02-14T06:53:19.718Z,966.47
2017-02-14T06:54:19.699Z,966.49
2017-02-14T06:55:19.680Z,966.55
2017-02-14T06:56:19.658Z,966.55
2017-02-14T06:57:19.637Z,966.54
2017-02-14T06:58:19.618Z,966.6
2017-02-14T06:59:19.598Z,966.63
2017-02-14T07:00:19.577Z,966.56
2017-02-14T07:01:19.556Z,966.54
2017-02-14T07:02:19.535Z,966.52
2017-02-14T07:03:19.514Z,966.56
2017-02-14T07:04:19.494Z,966.61
2017-02-14T07:05:19.475Z,966.65
2017-02-14T07:06:19.455Z,966.67
2017-02-14T07:07:19.434Z,966.74
2017-02-14T07:08:19.410Z,966.69
2017-02-14T07:09:19.393Z,966.67
2017-02-14T07:10:19.370Z,966.71
2017-02-14T07:11:19.348Z,966.72
2017-02-14T07:12:19.332Z,966.69
2017-02-14T07:13:19.310Z,966.74
2017-02-14T07:14:19.291Z,966.76
2017-02-14T07:15:19.268Z,966.8
2017-02-14T07:16:19.247Z,966.75
2017-02-14T07:17:19.233Z,966.78
2017-02-14T07:18:19.206Z,966.81
2017-02-14T07:19:19.189Z,966.84
2017-02-14T07:20:19.166Z,966.87
2017-02-14T07:21:19.148Z,966.9
2017-02-14T07:22:19.128Z,966.94
2017-02-14T07:23:19.105Z,967.01
2017-02-14T07:24:19.089Z,967.05
2017-02-14T07:25:19.066Z,967.05
2017-02-14T07:26:19.048Z,967.04
2017-02-14T07:27:19.027Z,967.03
2017-02-14T07:28:19.006Z,967.1
2017-02-14T07:29:18.987Z,967.04
2017-02-14T07:30:18.966Z,967.06
2017-02-14T07:31:18.947Z,967.06
2017-02-14T07:32:18.927Z,967.07
2017-02-14T07:33:18.910Z,967.08
2017-02-14T07:34:18.885Z,967.16
2017-02-14T07:35:18.867Z,967.2
2017-02-14T07:36:18.849Z,967.19
2017-02-14T07:37:18.830Z,967.21
2017-02-14T07:38:18.806Z,967.28
2017-02-14T07:39:18.787Z,967.31
2017-02-14T07:40:18.766Z,967.25
2017-02-14T07:41:18.747Z,967.27
2017-02-14T07:42:18.731Z,967.24
2017-02-14T07:43:18.706Z,967.27
2017-02-14T07:44:18.687Z,967.29
2017-02-14T07:45:18.665Z,967.32
2017-02-14T07:46:18.648Z,967.29
2017-02-14T07:47:18.625Z,967.29
2017-02-14T07:48:18.605Z,967.3
2017-02-14T07:49:18.588Z,967.3
2017-02-14T07:50:18.566Z,967.29
2017-02-14T07:51:18.548Z,967.3
2017-02-14T07:52:18.530Z,967.3
2017-02-14T07:53:18.510Z,967.32
2017-02-14T07:54:18.489Z,967.31
2017-02-14T07:55:18.470Z,967.27
2017-02-14T07:56:18.454Z,967.24
2017-02-14T07:57:18.431Z,967.23
2017-02-14T07:58:18.409Z,967.21
2017-02-14T07:59:18.391Z,967.2
2017-02-14T08:00:18.368Z,967.25
2017-02-14T08:01:18.353Z,967.23
2017-02-14T08:02:18.328Z,967.17
2017-02-14T08:03:18.311Z,967.19
2017-02-14T08:04:18.292Z,967.26
2017-02-14T08:05:18.268Z,967.21
2017-02-14T08:06:18.254Z,967.2
2017-02-14T08:07:18.233Z,967.19
2017-02-14T08:08:18.215Z,967.24
2017-02-14T08:09:18.194Z,967.21
2017-02-14T08:10:18.172Z,967.17
2017-02-14T08:11:18.153Z,967.23
2017-02-14T08:12:18.136Z,967.27
2017-02-14T08:13:18.116Z,967.3
2017-02-14T08:14:18.098Z,967.29
2017-02-14T08:15:18.077Z,967.34
2017-02-14T08:16:18.058Z,967.34
2017-02-14T08:17:18.042Z,967.35
2017-02-14T08:18:18.017Z,967.28
2017-02-14T08:19:18.001Z,967.32
2017-02-14T08:20:17.979Z,967.34
2017-02-14T08:21:17.961Z,967.35
2017-02-14T08:22:17.943Z,967.36
2017-02-14T08:23:17.921Z,967.37
2017-02-14T08:24:17.900Z,967.37
2017-02-14T08:25:17.886Z,967.42
2017-02-14T08:26:17.865Z,967.42
2017-02-14T08:27:17.849Z,967.39
2017-02-14T08:28:17.828Z,967.39
2017-02-14T08:29:17.809Z,967.37
2017-02-14T08:30:17.791Z,967.43
2017-02-14T08:31:17.770Z,967.45
2017-02-14T08:32:17.749Z,967.4
2017-02-14T08:33:17.766Z,967.42
2017-02-14T08:34:17.740Z,967.48
2017-02-14T08:35:17.722Z,967.5
2017-02-14T08:36:17.704Z,967.51
2017-02-14T08:37:17.686Z,967.54
2017-02-14T08:38:17.667Z,967.52
2017-02-14T08:39:17.646Z,967.51
2017-02-14T08:40:17.631Z,967.53
2017-02-14T08:41:17.613Z,967.52
2017-02-14T08:42:17.592Z,967.48
2017-02-14T08:43:17.574Z,967.49
2017-02-14T08:44:17.555Z,967.56
2017-02-14T08:45:17.538Z,967.56
2017-02-14T08:46:17.520Z,967.57
2017-02-14T08:47:17.497Z,967.64
2017-02-14T08:48:17.481Z,967.58
2017-02-14T08:49:17.463Z,967.56
2017-02-14T08:50:17.472Z,967.62
2017-02-14T08:51:17.426Z,967.6
2017-02-14T08:52:17.408Z,967.56
2017-02-14T08:53:17.388Z,967.57
2017-02-14T08:54:17.368Z,967.61
2017-02-14T08:55:17.377Z,967.63
2017-02-14T08:56:17.334Z,967.68
2017-02-14T08:57:17.316Z,967.74
2017-02-14T08:58:17.298Z,967.76
2017-02-14T08:59:17.277Z,967.76
2017-02-14T09:00:17.262Z,967.77
2017-02-14T09:01:17.243Z,967.76
2017-02-14T09:02:17.225Z,967.8
2017-02-14T09:03:17.207Z,967.81
2017-02-14T09:04:17.188Z,967.77
2017-02-14T09:05:17.172Z,967.81
2017-02-14T09:06:17.153Z,967.81
2017-02-14T09:07:17.135Z,967.82
2017-02-14T09:08:17.115Z,967.78
2017-02-14T09:09:17.099Z,967.76
2017-02-14T09:10:17.081Z,967.77
2017-02-14T09:11:17.062Z,967.79
2017-02-14T09:12:17.045Z,967.85
2017-02-14T09:13:17.029Z,967.85
2017-02-14T09:14:17.011Z,967.86
2017-02-14T09:15:16.994Z,967.9
2017-02-14T09:16:16.972Z,967.88
2017-02-14T09:17:16.954Z,967.88
2017-02-14T09:18:16.940Z,967.87
2017-02-14T09:19:16.923Z,967.85
2017-02-14T09:20:16.905Z,967.9
2017-02-14T09:21:16.889Z,967.92
2017-02-14T09:22:16.868Z,967.95
2017-02-14T09:23:16.853Z,967.98
2017-02-14T09:24:16.865Z,967.97
2017-02-14T09:25:16.816Z,968.02
2017-02-14T09:26:16.802Z,967.98
2017-02-14T09:27:16.784Z,968.01
2017-02-14T09:28:16.764Z,967.99
2017-02-14T09:29:16.750Z,968.02
2017-02-14T09:30:16.731Z,968.08
2017-02-14T09:31:16.716Z,968.1
2017-02-14T09:32:16.696Z,968.05
2017-02-14T09:33:16.682Z,968.07
2017-02-14T09:34:16.665Z,968.07
2017-02-14T09:35:16.649Z,968.05
2017-02-14T09:36:16.631Z,968.08
2017-02-14T09:37:16.615Z,968.12
2017-02-14T09:38:16.597Z,968.11
2017-02-14T09:39:16.580Z,968.14
2017-02-14T09:40:16.564Z,968.14
2017-02-14T09:41:16.547Z,968.19
2017-02-14T09:42:16.528Z,968.17
2017-02-14T09:43:16.513Z,968.2
2017-02-14T09:44:16.497Z,968.18
2017-02-14T09:45:16.480Z,968.17
2017-02-14T09:46:16.464Z,968.14
2017-02-14T09:47:16.448Z,968.14
2017-02-14T09:48:16.431Z,968.11
2017-02-14T09:49:16.415Z,968.14
2017-02-14T09:50:16.399Z,968.13
2017-02-14T09:51:16.384Z,968.06
2017-02-14T09:52:16.363Z,968.04
2017-02-14T09:53:16.350Z,968.06
2017-02-14T09:54:16.331Z,968.04
2017-02-14T09:55:16.318Z,968.08
2017-02-14T09:56:16.300Z,968.07
2017-02-14T09:57:16.282Z,968.07
2017-02-14T09:58:16.268Z,968.08
2017-02-14T09:59:16.274Z,968.08
2017-02-14T10:00:16.237Z,968.13
2017-02-14T10:01:16.220Z,968.09
2017-02-14T10:02:16.206Z,968.08
2017-02-14T10:03:16.188Z,968.09
2017-02-14T10:04:16.173Z,968.06
2017-02-14T10:05:16.156Z,968.01
2017-02-14T10:06:16.141Z,968.03
2017-02-14T10:07:16.122Z,968
2017-02-14T10:08:16.110Z,967.98
2017-02-14T10:09:16.094Z,967.97
2017-02-14T10:10:16.076Z,967.94
2017-02-14T10:11:16.062Z,967.96
2017-02-14T10:12:16.045Z,967.87
2017-02-14T10:13:16.030Z,967.86
2017-02-14T10:14:16.013Z,967.87
2017-02-14T10:15:15.995Z,967.84
2017-02-14T10:16:15.979Z,967.89
2017-02-14T10:17:15.966Z,967.87
2017-02-14T10:18:15.948Z,967.83
2017-02-14T10:19:15.936Z,967.76
2017-02-14T10:20:15.920Z,967.78
2017-02-14T10:21:15.901Z,967.78
2017-02-14T10:22:15.889Z,967.79
2017-02-14T10:23:15.874Z,967.8
2017-02-14T10:24:15.859Z,967.86
2017-02-14T10:25:15.839Z,967.84
2017-02-14T10:26:15.826Z,967.85
2017-02-14T10:27:15.808Z,967.83
2017-02-14T10:28:15.797Z,967.84
2017-02-14T10:29:15.779Z,967.82
2017-02-14T10:30:15.765Z,967.84
2017-02-14T10:31:15.749Z,967.82
2017-02-14T10:32:15.733Z,967.83
2017-02-14T10:33:15.717Z,967.88
2017-02-14T10:34:15.704Z,967.84
2017-02-14T10:35:15.689Z,967.83
2017-02-14T10:36:15.669Z,967.89
2017-02-14T10:37:15.659Z,967.83
2017-02-14T10:38:15.641Z,967.86
2017-02-14T10:39:15.628Z,967.85
2017-02-14T10:40:15.807Z,967.8
2017-02-14T10:41:15.625Z,967.83
2017-02-14T10:42:15.703Z,967.85
2017-02-14T10:43:15.693Z,967.81
2017-02-14T10:44:15.595Z,967.79
2017-02-14T10:45:15.610Z,967.81
2017-02-14T10:46:15.545Z,967.81
2017-02-14T10:47:15.614Z,967.81
2017-02-14T10:48:15.606Z,967.83
2017-02-14T10:49:15.482Z,967.82
2017-02-14T10:50:15.468Z,967.84
2017-02-14T10:51:15.453Z,967.82
2017-02-14T10:52:15.440Z,967.84
2017-02-14T10:53:15.423Z,967.79
2017-02-14T10:54:15.412Z,967.75
2017-02-14T10:55:15.394Z,967.79
2017-02-14T10:56:15.383Z,967.82
2017-02-14T10:57:15.367Z,967.79
2017-02-14T10:58:15.354Z,967.8
2017-02-14T10:59:15.343Z,967.76
2017-02-14T11:00:15.325Z,967.8
2017-02-14T11:01:15.314Z,967.83
2017-02-14T11:02:15.299Z,967.82
2017-02-14T11:03:15.283Z,967.83
2017-02-14T11:04:15.273Z,967.88
2017-02-14T11:05:15.258Z,967.86
2017-02-14T11:06:15.245Z,967.89
2017-02-14T11:07:15.230Z,967.88
2017-02-14T11:08:15.215Z,967.88
2017-02-14T11:09:15.205Z,967.89
2017-02-14T11:10:15.190Z,967.92
2017-02-14T11:11:15.177Z,967.94
2017-02-14T11:12:15.163Z,967.94
2017-02-14T11:13:15.147Z,967.95
2017-02-14T11:14:15.135Z,967.98
2017-02-14T11:15:15.119Z,967.95
2017-02-14T11:16:15.105Z,967.95
2017-02-14T11:17:15.094Z,967.99
2017-02-14T11:18:15.079Z,968
2017-02-14T11:19:15.064Z,968.07
2017-02-14T11:20:15.054Z,968.06
2017-02-14T11:21:15.039Z,968.08
2017-02-14T11:22:15.027Z,968.08
2017-02-14T11:23:15.015Z,968.03
2017-02-14T11:24:15.001Z,968.07
2017-02-14T11:25:14.986Z,967.99
2017-02-14T11:26:14.971Z,968
2017-02-14T11:27:14.960Z,968.02
2017-02-14T11:28:14.948Z,967.99
2017-02-14T11:29:14.935Z,968.05
2017-02-14T11:30:14.920Z,968.04
2017-02-14T11:31:14.908Z,968.01
2017-02-14T11:32:14.894Z,968.06
2017-02-14T11:33:14.883Z,968.07
2017-02-14T11:34:14.870Z,968.06
2017-02-14T11:35:14.855Z,968.12
2017-02-14T11:36:14.840Z,968.13
2017-02-14T11:37:14.831Z,968.07
2017-02-14T11:38:14.817Z,968.07
2017-02-14T11:39:14.805Z,968.09
2017-02-14T11:40:14.789Z,968.12
2017-02-14T11:41:14.776Z,968.07
2017-02-14T11:42:14.764Z,968.05
2017-02-14T11:43:14.749Z,968.06
2017-02-14T11:44:14.743Z,968.04
2017-02-14T11:45:14.724Z,968.03
2017-02-14T11:46:14.713Z,968.05
2017-02-14T11:47:14.700Z,968.02
2017-02-14T11:48:14.688Z,968.04
2017-02-14T11:49:14.676Z,968.04
2017-02-14T11:50:14.660Z,968.05
2017-02-14T11:51:14.648Z,968.03
2017-02-14T11:52:14.637Z,968.03
2017-02-14T11:53:14.620Z,968.08
2017-02-14T11:54:14.610Z,968.06
2017-02-14T11:55:14.594Z,968.07
2017-02-14T11:56:14.582Z,968.11
2017-02-14T11:57:14.570Z,968.09
2017-02-14T11:58:14.559Z,968.16
2017-02-14T11:59:14.547Z,968.1
2017-02-14T12:00:14.532Z,968.13
2017-02-14T12:01:14.518Z,968.13
2017-02-14T12:02:14.508Z,968.13
2017-02-14T12:03:14.495Z,968.11
2017-02-14T12:04:14.482Z,968.11
2017-02-14T12:05:14.467Z,968.12
2017-02-14T12:06:14.457Z,968.16
2017-02-14T12:07:14.441Z,968.14
2017-02-14T12:08:14.432Z,968.16
2017-02-14T12:09:14.420Z,968.16
2017-02-14T12:10:14.408Z,968.16
2017-02-14T12:11:14.394Z,968.1
2017-02-14T12:12:14.379Z,968.12
2017-02-14T12:13:14.370Z,968.14
2017-02-14T12:14:14.357Z,968.14
2017-02-14T12:15:14.362Z,968.11
2017-02-14T12:16:14.336Z,968.02
2017-02-14T12:17:14.319Z,968.05
2017-02-14T12:18:14.306Z,968.08
2017-02-14T12:19:14.292Z,968.04
2017-02-14T12:20:14.303Z,968.04
2017-02-14T12:21:14.269Z,968.06
2017-02-14T12:22:14.256Z,968.09
2017-02-14T12:23:14.245Z,968.09
2017-02-14T12:24:14.232Z,968.07
2017-02-14T12:25:14.220Z,968.14
2017-02-14T12:26:14.205Z,968.12
2017-02-14T12:27:14.191Z,968.16
2017-02-14T12:28:14.181Z,968.11
2017-02-14T12:29:14.169Z,968.09
2017-02-14T12:30:14.159Z,968.12
2017-02-14T12:31:14.141Z,968.09